createdAt,value
2022-10-02T00:01:12.873Z,17.42
2022-10-02T00:02:32.935Z,17.50
2022-10-02T00:03:42.651Z,17.61
2022-10-02T00:05:21.842Z,17.72
2022-10-02T00:06:28.666Z,17.58
2022-10-02T00:07:52.571Z,17.04
2022-10-02T00:09:01.086Z,16.28
2022-10-02T00:10:52.361Z,15.72
2022-10-02T00:11:58.236Z,15.04
2022-10-02T00:13:20.499Z,15.11
2022-10-02T00:14:25.415Z,15.60
2022-10-02T00:15:31.237Z,16.03
2022-10-02T00:16:46.682Z,16.39
2022-10-02T00:17:54.978Z,16.73
2022-10-02T00:18:57.673Z,16.97
2022-10-02T00:19:59.280Z,17.13
2022-10-02T00:21:15.609Z,17.27
2022-10-02T00:22:29.506Z,17.41
2022-10-02T00:23:40.492Z,17.52
2022-10-02T00:25:07.932Z,17.60
2022-10-02T00:26:15.411Z,17.71
2022-10-02T00:27:37.263Z,17.79
2022-10-02T00:28:55.974Z,17.85
2022-10-02T00:30:02.196Z,17.65
2022-10-02T00:31:19.279Z,17.20
2022-10-02T00:32:56.242Z,16.53
2022-10-02T00:34:37.971Z,15.76
2022-10-02T00:36:10.624Z,15.17
2022-10-02T00:37:28.747Z,15.38
2022-10-02T00:38:49.006Z,15.83
2022-10-02T00:40:09.922Z,16.26
2022-10-02T00:41:17.564Z,16.61
2022-10-02T00:42:30.012Z,16.87
2022-10-02T00:44:07.116Z,17.06
2022-10-02T00:45:34.117Z,17.24
2022-10-02T00:46:48.656Z,17.35
2022-10-02T00:48:22.881Z,17.43
2022-10-02T00:49:39.981Z,17.54
2022-10-02T00:50:57.953Z,17.65
2022-10-02T00:52:02.941Z,17.71
2022-10-02T00:53:30.728Z,17.76
2022-10-02T00:54:59.027Z,17.81
2022-10-02T00:56:10.998Z,17.53
2022-10-02T00:57:29.721Z,16.93
2022-10-02T00:58:51.024Z,16.26
2022-10-02T01:00:07.225Z,15.64
2022-10-02T01:01:16.361Z,15.30
2022-10-02T01:02:23.919Z,15.50
2022-10-02T01:03:38.003Z,15.91
2022-10-02T01:04:41.549Z,16.37
2022-10-02T01:05:43.730Z,16.70
2022-10-02T01:06:45.391Z,16.95
2022-10-02T01:07:51.431Z,17.14
2022-10-02T01:08:53.546Z,17.31
2022-10-02T01:09:55.591Z,17.46
2022-10-02T01:10:57.687Z,17.60
2022-10-02T01:12:01.069Z,17.69
2022-10-02T01:13:03.174Z,17.76
2022-10-02T01:14:04.902Z,17.84
2022-10-02T01:15:18.710Z,17.89
2022-10-02T01:16:20.609Z,17.85
2022-10-02T01:17:33.026Z,17.53
2022-10-02T01:18:34.882Z,16.93
2022-10-02T01:19:40.254Z,16.40
2022-10-02T01:20:48.896Z,15.88
2022-10-02T01:21:59.864Z,15.41
2022-10-02T01:23:10.254Z,15.37
2022-10-02T01:24:25.355Z,15.75
2022-10-02T01:25:27.117Z,16.26
2022-10-02T01:26:28.838Z,16.63
2022-10-02T01:27:36.551Z,16.93
2022-10-02T01:28:40.937Z,17.20
2022-10-02T01:29:55.386Z,17.38
2022-10-02T01:31:04.947Z,17.55
2022-10-02T01:32:06.594Z,17.70
2022-10-02T01:33:10.884Z,17.79
2022-10-02T01:34:12.711Z,17.89
2022-10-02T01:35:14.641Z,17.99
2022-10-02T01:36:17.229Z,17.88
2022-10-02T01:37:22.262Z,17.49
2022-10-02T01:38:24.711Z,16.94
2022-10-02T01:39:27.399Z,16.41
2022-10-02T01:40:35.041Z,15.89
2022-10-02T01:41:44.372Z,15.41
2022-10-02T01:42:46.054Z,15.16
2022-10-02T01:43:55.605Z,15.34
2022-10-02T01:44:58.401Z,15.75
2022-10-02T01:46:39.188Z,16.13
2022-10-02T01:47:54.191Z,16.62
2022-10-02T01:49:10.902Z,16.89
2022-10-02T01:50:35.469Z,17.12
2022-10-02T01:51:58.247Z,17.33
2022-10-02T01:53:19.115Z,17.50
2022-10-02T01:54:39.414Z,17.64
2022-10-02T01:56:10.308Z,17.76
2022-10-02T01:57:29.326Z,17.86
2022-10-02T01:58:43.651Z,17.93
2022-10-02T02:00:08.689Z,18.00
2022-10-02T02:01:33.354Z,17.73
2022-10-02T02:02:54.411Z,17.09
2022-10-02T02:04:11.197Z,16.38
2022-10-02T02:05:38.873Z,15.79
2022-10-02T02:06:58.009Z,15.57
2022-10-02T02:08:20.671Z,15.94
2022-10-02T02:09:30.330Z,16.43
2022-10-02T02:11:01.746Z,16.79
2022-10-02T02:12:15.162Z,17.10
2022-10-02T02:13:28.578Z,17.30
2022-10-02T02:14:36.537Z,17.46
2022-10-02T02:16:10.798Z,17.57
2022-10-02T02:17:23.806Z,17.62
2022-10-02T02:18:33.918Z,17.74
2022-10-02T02:19:48.730Z,17.83
2022-10-02T02:20:55.809Z,17.91
2022-10-02T02:22:07.803Z,17.94
2022-10-02T02:23:17.332Z,17.90
2022-10-02T02:24:31.415Z,17.94
2022-10-02T02:25:40.612Z,17.73
2022-10-02T02:26:47.076Z,17.24
2022-10-02T02:27:55.131Z,16.68
2022-10-02T02:29:03.451Z,16.13
2022-10-02T02:30:12.092Z,15.67
2022-10-02T02:31:21.477Z,15.54
2022-10-02T02:32:30.659Z,15.88
2022-10-02T02:33:42.932Z,16.32
2022-10-02T02:34:52.723Z,16.69
2022-10-02T02:35:59.945Z,17.00
2022-10-02T02:37:16.596Z,17.24
2022-10-02T02:38:36.841Z,17.46
2022-10-02T02:39:50.448Z,17.67
2022-10-02T02:40:52.755Z,17.80
2022-10-02T02:42:03.019Z,17.84
2022-10-02T02:43:10.926Z,17.93
2022-10-02T02:44:22.217Z,18.01
2022-10-02T02:45:41.448Z,18.07
2022-10-02T02:47:03.548Z,18.13
2022-10-02T02:48:19.944Z,17.75
2022-10-02T02:49:27.052Z,17.07
2022-10-02T02:50:48.004Z,16.45
2022-10-02T02:51:53.013Z,15.80
2022-10-02T02:53:15.271Z,15.46
2022-10-02T02:54:24.292Z,15.63
2022-10-02T02:55:32.871Z,16.06
2022-10-02T02:56:36.286Z,16.49
2022-10-02T02:57:45.911Z,16.81
2022-10-02T02:58:52.507Z,17.05
2022-10-02T02:59:59.078Z,17.26
2022-10-02T03:01:00.787Z,17.45
2022-10-02T03:02:02.633Z,17.60
2022-10-02T03:03:04.611Z,17.72
2022-10-02T03:04:07.001Z,17.84
2022-10-02T03:05:18.368Z,17.92
2022-10-02T03:06:38.258Z,17.98
2022-10-02T03:07:49.016Z,17.99
2022-10-02T03:08:53.332Z,17.99
2022-10-02T03:10:12.831Z,18.02
2022-10-02T03:11:35.476Z,18.06
2022-10-02T03:12:58.127Z,18.05
2022-10-02T03:14:31.779Z,17.76
2022-10-02T03:15:53.064Z,17.03
2022-10-02T03:17:03.123Z,16.35
2022-10-02T03:18:31.104Z,15.83
2022-10-02T03:19:50.466Z,15.63
2022-10-02T03:21:00.711Z,15.98
2022-10-02T03:22:22.977Z,16.38
2022-10-02T03:23:35.753Z,16.77
2022-10-02T03:24:56.937Z,17.02
2022-10-02T03:26:21.436Z,17.29
2022-10-02T03:28:01.124Z,17.43
2022-10-02T03:29:10.857Z,17.58
2022-10-02T03:30:15.826Z,17.72
2022-10-02T03:31:21.939Z,17.82
2022-10-02T03:32:26.417Z,17.86
2022-10-02T03:33:33.156Z,17.90
2022-10-02T03:34:37.701Z,17.95
2022-10-02T03:35:41.379Z,18.02
2022-10-02T03:36:46.743Z,18.04
2022-10-02T03:37:56.138Z,18.02
2022-10-02T03:40:26.304Z,18.13
2022-10-02T03:41:27.932Z,17.81
2022-10-02T03:42:34.736Z,17.26
2022-10-02T03:43:36.714Z,16.63
2022-10-02T03:44:38.323Z,16.09
2022-10-02T03:45:50.867Z,15.69
2022-10-02T03:46:53.418Z,15.70
2022-10-02T03:47:55.122Z,16.02
2022-10-02T03:48:56.748Z,16.39
2022-10-02T03:49:58.844Z,16.70
2022-10-02T03:51:00.449Z,16.95
2022-10-02T03:52:02.065Z,17.18
2022-10-02T03:53:13.394Z,17.36
2022-10-02T03:54:21.425Z,17.44
2022-10-02T03:55:40.503Z,17.57
2022-10-02T03:56:54.958Z,17.69
2022-10-02T03:57:57.391Z,17.81
2022-10-02T03:59:03.403Z,17.86
2022-10-02T04:00:14.699Z,17.93
2022-10-02T04:01:23.855Z,17.99
2022-10-02T04:02:46.415Z,18.05
2022-10-02T04:03:54.188Z,18.11
2022-10-02T04:05:30.631Z,18.16
2022-10-02T04:06:45.778Z,18.20
2022-10-02T04:07:54.538Z,18.23
2022-10-02T04:09:14.764Z,18.24
2022-10-02T04:10:29.612Z,18.03
2022-10-02T04:11:40.524Z,17.46
2022-10-02T04:12:50.481Z,16.83
2022-10-02T04:14:20.168Z,16.23
2022-10-02T04:15:32.729Z,15.55
2022-10-02T04:16:47.558Z,15.35
2022-10-02T04:17:59.270Z,15.65
2022-10-02T04:19:26.213Z,16.12
2022-10-02T04:20:44.876Z,16.63
2022-10-02T04:21:59.587Z,16.98
2022-10-02T04:23:15.078Z,17.18
2022-10-02T04:24:44.581Z,17.34
2022-10-02T04:25:53.056Z,17.48
2022-10-02T04:27:14.606Z,17.54
2022-10-02T04:28:22.581Z,17.67
2022-10-02T04:29:32.488Z,17.75
2022-10-02T04:30:34.097Z,17.83
2022-10-02T04:31:35.807Z,17.90
2022-10-02T04:32:37.605Z,17.90
2022-10-02T04:33:40.400Z,17.91
2022-10-02T04:34:43.488Z,17.89
2022-10-02T04:36:10.170Z,17.89
2022-10-02T04:37:49.283Z,17.90
2022-10-02T04:39:06.673Z,17.87
2022-10-02T04:40:31.700Z,17.84
2022-10-02T04:41:45.430Z,17.86
2022-10-02T04:43:18.851Z,17.83
2022-10-02T04:44:46.870Z,17.81
2022-10-02T04:46:08.229Z,17.82
2022-10-02T04:47:24.813Z,17.76
2022-10-02T04:49:03.843Z,17.74
2022-10-02T04:50:39.350Z,17.69
2022-10-02T04:52:29.135Z,17.62
2022-10-02T04:53:52.319Z,17.53
2022-10-02T04:55:02.296Z,17.54
2022-10-02T04:56:24.990Z,17.53
2022-10-02T04:58:04.060Z,17.47
2022-10-02T04:59:35.520Z,17.50
2022-10-02T05:00:53.882Z,17.54
2022-10-02T05:02:22.615Z,17.54
2022-10-02T05:03:48.428Z,17.58
2022-10-02T05:05:24.114Z,17.67
2022-10-02T05:06:42.967Z,17.73
2022-10-02T05:08:22.266Z,17.59
2022-10-02T05:09:43.005Z,17.62
2022-10-02T05:11:11.719Z,17.66
2022-10-02T05:12:31.701Z,17.69
2022-10-02T05:13:52.280Z,17.70
2022-10-02T05:15:09.551Z,17.76
2022-10-02T05:16:14.054Z,17.76
2022-10-02T05:17:34.753Z,17.81
2022-10-02T05:19:01.805Z,17.89
2022-10-02T05:20:34.565Z,17.91
2022-10-02T05:21:49.207Z,17.92
2022-10-02T05:23:11.204Z,17.97
2022-10-02T05:25:03.959Z,17.94
2022-10-02T05:26:24.422Z,17.92
2022-10-02T05:27:42.326Z,17.95
2022-10-02T05:28:59.486Z,17.98
2022-10-02T05:30:20.071Z,17.96
2022-10-02T05:31:40.308Z,17.67
2022-10-02T05:33:03.004Z,17.14
2022-10-02T05:34:07.441Z,16.40
2022-10-02T05:35:20.753Z,15.87
2022-10-02T05:36:43.393Z,15.46
2022-10-02T05:38:09.658Z,15.64
2022-10-02T05:39:57.487Z,16.15
2022-10-02T05:41:20.181Z,16.72
2022-10-02T05:42:32.859Z,17.02
2022-10-02T05:43:44.691Z,17.19
2022-10-02T05:45:04.186Z,17.29
2022-10-02T05:46:13.154Z,17.40
2022-10-02T05:47:28.926Z,17.53
2022-10-02T05:48:42.354Z,17.62
2022-10-02T05:50:21.450Z,17.72
2022-10-02T05:51:51.815Z,17.82
2022-10-02T05:53:00.403Z,17.88
2022-10-02T05:54:20.782Z,17.93
2022-10-02T05:55:28.143Z,18.01
2022-10-02T05:56:39.954Z,18.09
2022-10-02T05:57:52.551Z,18.18
2022-10-02T05:59:09.729Z,18.22
2022-10-02T06:00:39.025Z,18.10
2022-10-02T06:01:47.135Z,17.45
2022-10-02T06:03:09.161Z,16.80
2022-10-02T06:04:33.890Z,16.11
2022-10-02T06:05:55.559Z,15.55
2022-10-02T06:07:07.294Z,15.60
2022-10-02T06:08:16.434Z,15.95
2022-10-02T06:09:31.360Z,16.26
2022-10-02T06:10:45.540Z,16.58
2022-10-02T06:11:59.343Z,16.88
2022-10-02T06:13:40.005Z,17.12
2022-10-02T06:14:58.978Z,17.38
2022-10-02T06:16:28.613Z,17.54
2022-10-02T06:17:40.868Z,17.58
2022-10-02T06:18:49.670Z,17.70
2022-10-02T06:19:57.018Z,17.79
2022-10-02T06:21:10.691Z,17.86
2022-10-02T06:22:21.158Z,17.93
2022-10-02T06:23:32.214Z,18.00
2022-10-02T06:24:48.214Z,18.07
2022-10-02T06:25:59.302Z,18.12
2022-10-02T06:27:10.540Z,18.15
2022-10-02T06:28:30.328Z,18.02
2022-10-02T06:29:42.679Z,17.42
2022-10-02T06:31:15.235Z,16.75
2022-10-02T06:32:37.479Z,16.01
2022-10-02T06:33:39.269Z,15.57
2022-10-02T06:34:44.560Z,15.65
2022-10-02T06:36:08.616Z,16.02
2022-10-02T06:37:36.527Z,16.43
2022-10-02T06:39:02.379Z,16.87
2022-10-02T06:40:31.362Z,17.20
2022-10-02T06:41:51.790Z,17.48
2022-10-02T06:43:21.321Z,17.67
2022-10-02T06:44:32.114Z,17.81
2022-10-02T06:46:00.642Z,17.93
2022-10-02T06:47:37.458Z,17.99
2022-10-02T06:48:46.180Z,18.11
2022-10-02T06:50:19.341Z,18.05
2022-10-02T06:51:30.489Z,17.55
2022-10-02T06:52:51.465Z,16.96
2022-10-02T06:53:58.923Z,16.31
2022-10-02T06:55:22.010Z,15.85
2022-10-02T06:56:51.285Z,15.55
2022-10-02T06:58:27.064Z,15.94
2022-10-02T06:59:48.888Z,16.58
2022-10-02T07:01:03.079Z,17.00
2022-10-02T07:02:34.930Z,17.30
2022-10-02T07:03:55.153Z,17.58
2022-10-02T07:05:24.402Z,17.79
2022-10-02T07:06:57.167Z,17.96
2022-10-02T07:08:13.914Z,18.00
2022-10-02T07:09:54.438Z,17.72
2022-10-02T07:11:25.164Z,16.92
2022-10-02T07:12:47.960Z,16.22
2022-10-02T07:14:07.947Z,15.67
2022-10-02T07:15:38.395Z,15.29
2022-10-02T07:16:54.540Z,15.56
2022-10-02T07:18:19.520Z,16.06
2022-10-02T07:19:54.992Z,16.59
2022-10-02T07:21:07.772Z,17.01
2022-10-02T07:22:45.781Z,17.27
2022-10-02T07:24:04.884Z,17.56
2022-10-02T07:25:44.779Z,17.74
2022-10-02T07:27:15.646Z,17.82
2022-10-02T07:28:38.251Z,17.80
2022-10-02T07:30:16.188Z,17.35
2022-10-02T07:31:40.400Z,16.54
2022-10-02T07:32:50.282Z,15.93
2022-10-02T07:34:03.372Z,15.47
2022-10-02T07:35:22.013Z,15.09
2022-10-02T07:36:35.843Z,15.18
2022-10-02T07:38:02.407Z,15.66
2022-10-02T07:39:20.187Z,16.25
2022-10-02T07:40:21.850Z,16.71
2022-10-02T07:41:38.562Z,16.98
2022-10-02T07:42:54.699Z,17.23
2022-10-02T07:44:19.442Z,17.49
2022-10-02T07:45:43.905Z,17.69
2022-10-02T07:47:07.465Z,17.79
2022-10-02T07:48:41.589Z,17.90
2022-10-02T07:50:22.568Z,17.88
2022-10-02T07:51:50.228Z,17.19
2022-10-02T07:53:16.647Z,16.44
2022-10-02T07:54:50.665Z,15.83
2022-10-02T07:55:56.024Z,15.29
2022-10-02T07:57:10.044Z,15.16
2022-10-02T07:58:19.492Z,15.49
2022-10-02T07:59:21.857Z,15.98
2022-10-02T08:00:25.637Z,16.45
2022-10-02T08:01:33.557Z,16.85
2022-10-02T08:02:50.193Z,17.16
2022-10-02T08:03:57.692Z,17.41
2022-10-02T08:05:05.941Z,17.55
2022-10-02T08:06:08.914Z,17.73
2022-10-02T08:07:11.557Z,17.85
2022-10-02T08:08:26.097Z,17.97
2022-10-02T08:09:37.686Z,17.95
2022-10-02T08:10:45.590Z,17.57
2022-10-02T08:11:54.931Z,17.06
2022-10-02T08:13:20.439Z,16.50
2022-10-02T08:14:38.701Z,15.89
2022-10-02T08:15:47.199Z,15.45
2022-10-02T08:16:52.891Z,15.48
2022-10-02T08:18:22.890Z,15.87
2022-10-02T08:19:39.284Z,16.49
2022-10-02T08:20:44.363Z,16.96
2022-10-02T08:21:55.673Z,17.25
2022-10-02T08:23:21.604Z,17.58
2022-10-02T08:24:41.142Z,17.88
2022-10-02T08:25:52.344Z,18.09
2022-10-02T08:27:02.224Z,17.93
2022-10-02T08:28:18.178Z,17.41
2022-10-02T08:29:28.658Z,16.83
2022-10-02T08:30:30.367Z,16.34
2022-10-02T08:31:33.312Z,15.98
2022-10-02T08:32:36.877Z,15.65
2022-10-02T08:33:39.296Z,15.47
2022-10-02T08:34:42.511Z,15.68
2022-10-02T08:35:55.967Z,16.09
2022-10-02T08:37:18.983Z,16.63
2022-10-02T08:38:38.905Z,17.12
2022-10-02T08:40:05.236Z,17.51
2022-10-02T08:41:49.547Z,17.71
2022-10-02T08:43:00.165Z,17.45
2022-10-02T08:44:05.865Z,16.98
2022-10-02T08:45:47.745Z,16.53
2022-10-02T08:46:58.230Z,15.91
2022-10-02T08:48:16.749Z,15.57
2022-10-02T08:49:39.249Z,15.31
2022-10-02T08:51:00.846Z,15.61
2022-10-02T08:52:42.383Z,16.23
2022-10-02T08:54:30.264Z,16.86
2022-10-02T08:56:03.093Z,17.35
2022-10-02T08:57:34.547Z,17.73
2022-10-02T08:58:57.965Z,17.78
2022-10-02T09:00:23.085Z,17.27
2022-10-02T09:01:43.409Z,16.66
2022-10-02T09:03:30.017Z,16.10
2022-10-02T09:04:51.515Z,15.56
2022-10-02T09:06:31.137Z,15.26
2022-10-02T09:08:09.591Z,15.62
2022-10-02T09:09:14.142Z,16.42
2022-10-02T09:10:52.087Z,16.91
2022-10-02T09:12:02.535Z,17.53
2022-10-02T09:13:27.508Z,17.84
2022-10-02T09:14:56.834Z,17.89
2022-10-02T09:16:17.501Z,17.38
2022-10-02T09:17:45.568Z,16.88
2022-10-02T09:19:00.009Z,16.39
2022-10-02T09:20:04.686Z,16.06
2022-10-02T09:21:38.805Z,15.82
2022-10-02T09:23:12.254Z,15.64
2022-10-02T09:24:50.680Z,16.22
2022-10-02T09:26:17.189Z,17.09
2022-10-02T09:27:59.593Z,17.70
2022-10-02T09:30:01.126Z,17.97
2022-10-02T09:31:40.203Z,17.50
2022-10-02T09:32:58.886Z,16.98
2022-10-02T09:34:42.808Z,16.60
2022-10-02T09:36:19.021Z,16.17
2022-10-02T09:37:44.054Z,15.89
2022-10-02T09:39:03.860Z,15.69
2022-10-02T09:40:40.019Z,15.53
2022-10-02T09:42:30.753Z,15.36
2022-10-02T09:43:45.773Z,15.44
2022-10-02T09:45:36.531Z,16.02
2022-10-02T09:47:05.794Z,17.01
2022-10-02T09:48:45.261Z,17.57
2022-10-02T09:50:28.066Z,17.48
2022-10-02T09:52:06.520Z,16.88
2022-10-02T09:54:02.504Z,16.35
2022-10-02T09:55:50.085Z,15.88
2022-10-02T09:57:17.203Z,15.55
2022-10-02T09:58:44.077Z,15.31
2022-10-02T10:00:11.982Z,15.10
2022-10-02T10:02:00.013Z,14.90
2022-10-02T10:03:27.758Z,14.84
2022-10-02T10:05:05.150Z,15.46
2022-10-02T10:06:26.919Z,16.49
2022-10-02T10:08:05.396Z,17.20
2022-10-02T10:09:25.867Z,17.73
2022-10-02T10:10:39.856Z,17.71
2022-10-02T10:12:00.501Z,17.41
2022-10-02T10:13:23.655Z,17.03
2022-10-02T10:14:29.270Z,16.75
2022-10-02T10:15:40.677Z,16.54
2022-10-02T10:17:05.815Z,16.35
2022-10-02T10:18:43.361Z,16.14
2022-10-02T10:20:00.209Z,15.91
2022-10-02T10:21:39.294Z,15.75
2022-10-02T10:22:44.012Z,15.58
2022-10-02T10:24:24.591Z,15.49
2022-10-02T10:25:50.397Z,15.37
2022-10-02T10:27:10.851Z,15.31
2022-10-02T10:28:50.485Z,15.72
2022-10-02T10:30:29.761Z,16.71
2022-10-02T10:32:05.154Z,17.63
2022-10-02T10:33:44.498Z,18.24
2022-10-02T10:35:09.363Z,18.22
2022-10-02T10:36:48.877Z,17.78
2022-10-02T10:38:33.147Z,17.30
2022-10-02T10:39:59.466Z,16.91
2022-10-02T10:41:19.337Z,16.65
2022-10-02T10:42:56.388Z,16.44
2022-10-02T10:44:24.585Z,16.22
2022-10-02T10:45:41.119Z,16.09
2022-10-02T10:47:03.997Z,15.99
2022-10-02T10:48:33.906Z,15.86
2022-10-02T10:50:02.351Z,15.69
2022-10-02T10:51:22.706Z,15.52
2022-10-02T10:52:45.673Z,15.37
2022-10-02T10:54:22.800Z,15.21
2022-10-02T10:55:30.255Z,15.04
2022-10-02T10:56:46.248Z,14.96
2022-10-02T10:58:08.679Z,15.31
2022-10-02T10:59:55.032Z,16.10
2022-10-02T11:01:16.723Z,17.08
2022-10-02T11:02:44.680Z,17.68
2022-10-02T11:04:14.150Z,18.12
2022-10-02T11:05:53.421Z,17.93
2022-10-02T11:07:10.249Z,17.31
2022-10-02T11:08:38.746Z,16.87
2022-10-02T11:10:16.428Z,16.43
2022-10-02T11:11:39.635Z,16.05
2022-10-02T11:13:01.005Z,15.79
2022-10-02T11:14:41.556Z,15.59
2022-10-02T11:16:17.474Z,15.46
2022-10-02T11:17:27.888Z,16.09
2022-10-02T11:19:00.110Z,16.73
2022-10-02T11:20:34.986Z,17.50
2022-10-02T11:22:02.247Z,18.09
2022-10-02T11:23:43.100Z,18.19
2022-10-02T11:25:19.606Z,17.68
2022-10-02T11:26:39.996Z,17.13
2022-10-02T11:28:06.212Z,16.75
2022-10-02T11:29:34.041Z,16.43
2022-10-02T11:31:07.365Z,16.16
2022-10-02T11:32:32.487Z,15.93
2022-10-02T11:33:52.282Z,15.75
2022-10-02T11:35:23.391Z,15.61
2022-10-02T11:36:43.076Z,15.81
2022-10-02T11:38:15.197Z,16.53
2022-10-02T11:39:41.354Z,17.40
2022-10-02T11:41:15.983Z,18.08
2022-10-02T11:42:43.064Z,18.67
2022-10-02T11:44:00.325Z,18.58
2022-10-02T11:45:41.799Z,18.11
2022-10-02T11:47:20.781Z,17.46
2022-10-02T11:48:33.139Z,16.94
2022-10-02T11:49:47.848Z,16.63
2022-10-02T11:50:59.485Z,16.35
2022-10-02T11:52:36.810Z,16.09
2022-10-02T11:53:57.784Z,16.09
2022-10-02T11:55:18.328Z,16.65
2022-10-02T11:57:02.367Z,17.26
2022-10-02T11:58:22.388Z,17.93
2022-10-02T11:59:41.138Z,18.37
2022-10-02T12:01:21.938Z,18.80
2022-10-02T12:02:41.512Z,19.19
2022-10-02T12:04:09.466Z,19.49
2022-10-02T12:05:43.278Z,19.76
2022-10-02T12:07:19.112Z,20.02
2022-10-02T12:08:41.166Z,20.15
2022-10-02T12:09:54.623Z,19.80
2022-10-02T12:11:15.075Z,19.40
2022-10-02T12:12:58.973Z,19.01
2022-10-02T12:14:14.473Z,18.55
2022-10-02T12:15:40.098Z,18.21
2022-10-02T12:17:06.542Z,17.90
2022-10-02T12:18:23.608Z,17.65
2022-10-02T12:20:01.694Z,17.86
2022-10-02T12:21:39.378Z,18.60
2022-10-02T12:23:15.978Z,19.20
2022-10-02T12:25:02.436Z,19.34
2022-10-02T12:26:55.036Z,18.79
2022-10-02T12:28:27.592Z,17.98
2022-10-02T12:29:41.320Z,17.44
2022-10-02T12:30:55.013Z,17.06
2022-10-02T12:32:11.637Z,16.79
2022-10-02T12:33:22.342Z,17.03
2022-10-02T12:34:46.208Z,17.52
2022-10-02T12:36:08.535Z,18.07
2022-10-02T12:37:23.119Z,18.57
2022-10-02T12:38:40.724Z,18.88
2022-10-02T12:40:03.864Z,19.16
2022-10-02T12:41:34.401Z,19.32
2022-10-02T12:42:50.110Z,19.02
2022-10-02T12:44:06.998Z,18.49
2022-10-02T12:45:35.961Z,17.95
2022-10-02T12:47:05.638Z,17.42
2022-10-02T12:48:23.908Z,17.10
2022-10-02T12:49:37.508Z,17.38
2022-10-02T12:51:12.847Z,17.87
2022-10-02T12:52:28.273Z,18.46
2022-10-02T12:53:51.289Z,18.83
2022-10-02T12:55:16.690Z,19.08
2022-10-02T12:56:59.043Z,19.30
2022-10-02T12:58:25.423Z,19.36
2022-10-02T12:59:49.517Z,18.89
2022-10-02T13:00:54.032Z,18.22
2022-10-02T13:02:07.026Z,17.75
2022-10-02T13:03:27.166Z,17.27
2022-10-02T13:04:50.014Z,16.82
2022-10-02T13:06:02.128Z,16.79
2022-10-02T13:07:31.638Z,17.30
2022-10-02T13:09:28.083Z,18.11
2022-10-02T13:10:47.808Z,19.04
2022-10-02T13:12:16.280Z,19.52
2022-10-02T13:13:50.456Z,20.06
2022-10-02T13:15:22.074Z,20.62
2022-10-02T13:16:49.851Z,20.84
2022-10-02T13:18:09.874Z,20.55
2022-10-02T13:19:30.407Z,20.23
2022-10-02T13:20:39.006Z,19.99
2022-10-02T13:22:01.724Z,19.80
2022-10-02T13:23:36.868Z,19.65
2022-10-02T13:24:55.722Z,19.55
2022-10-02T13:26:16.575Z,19.49
2022-10-02T13:27:44.359Z,19.41
2022-10-02T13:29:09.418Z,19.22
2022-10-02T13:30:20.458Z,18.96
2022-10-02T13:31:37.553Z,18.73
2022-10-02T13:33:06.216Z,18.46
2022-10-02T13:34:40.539Z,18.13
2022-10-02T13:35:50.293Z,17.82
2022-10-02T13:37:09.079Z,17.63
2022-10-02T13:38:36.119Z,17.49
2022-10-02T13:40:12.689Z,17.39
2022-10-02T13:41:31.142Z,17.27
2022-10-02T13:42:50.961Z,17.13
2022-10-02T13:44:22.254Z,16.97
2022-10-02T13:45:30.211Z,16.77
2022-10-02T13:47:17.033Z,16.64
2022-10-02T13:48:31.399Z,16.45
2022-10-02T13:49:54.133Z,16.30
2022-10-02T13:51:13.688Z,16.16
2022-10-02T13:52:43.115Z,16.24
2022-10-02T13:54:18.227Z,16.94
2022-10-02T13:55:25.705Z,17.87
2022-10-02T13:56:54.818Z,18.46
2022-10-02T13:58:23.654Z,18.99
2022-10-02T13:59:53.902Z,18.96
2022-10-02T14:01:37.696Z,18.55
2022-10-02T14:02:58.722Z,17.99
2022-10-02T14:04:27.323Z,17.72
2022-10-02T14:05:31.888Z,17.57
2022-10-02T14:06:44.634Z,17.51
2022-10-02T14:08:16.860Z,17.50
2022-10-02T14:09:36.177Z,17.55
2022-10-02T14:10:53.444Z,17.59
2022-10-02T14:12:17.230Z,17.65
2022-10-02T14:13:42.313Z,17.75
2022-10-02T14:15:06.411Z,17.85
2022-10-02T14:16:26.179Z,17.97
2022-10-02T14:17:53.847Z,18.02
2022-10-02T14:19:24.464Z,18.02
2022-10-02T14:20:44.345Z,17.98
2022-10-02T14:21:57.718Z,17.96
2022-10-02T14:23:06.713Z,17.95
2022-10-02T14:24:22.853Z,17.94
2022-10-02T14:25:35.945Z,17.94
2022-10-02T14:26:43.650Z,17.93
2022-10-02T14:27:54.364Z,17.91
2022-10-02T14:29:32.133Z,17.90
2022-10-02T14:31:07.891Z,17.88
2022-10-02T14:32:48.645Z,17.84
2022-10-02T14:34:05.775Z,17.71
2022-10-02T14:35:44.201Z,17.62
2022-10-02T14:37:16.796Z,17.50
2022-10-02T14:38:39.883Z,17.40
2022-10-02T14:39:42.659Z,17.31
2022-10-02T14:41:18.106Z,17.21
2022-10-02T14:42:33.030Z,17.07
2022-10-02T14:43:59.679Z,16.95
2022-10-02T14:45:21.599Z,16.83
2022-10-02T14:46:54.367Z,16.69
2022-10-02T14:48:24.956Z,16.54
2022-10-02T14:49:41.849Z,16.42
2022-10-02T14:51:14.973Z,16.33
2022-10-02T14:53:02.201Z,16.22
2022-10-02T14:54:17.675Z,16.09
2022-10-02T14:56:03.386Z,16.02
2022-10-02T14:57:53.216Z,15.90
2022-10-02T14:59:16.110Z,15.79
2022-10-02T15:00:24.425Z,15.69
2022-10-02T15:01:26.895Z,15.61
2022-10-02T15:02:40.500Z,15.54
2022-10-02T15:04:11.746Z,15.59
2022-10-02T15:05:46.641Z,16.32
2022-10-02T15:07:04.342Z,17.30
2022-10-02T15:08:35.049Z,17.97
2022-10-02T15:09:51.668Z,18.56
2022-10-02T15:10:53.976Z,18.46
2022-10-02T15:12:05.725Z,18.14
2022-10-02T15:13:28.410Z,17.74
2022-10-02T15:14:47.776Z,17.35
2022-10-02T15:16:17.926Z,17.04
2022-10-02T15:17:56.751Z,16.76
2022-10-02T15:19:07.287Z,16.51
2022-10-02T15:20:47.649Z,16.38
2022-10-02T15:22:06.987Z,16.24
2022-10-02T15:23:24.456Z,16.14
2022-10-02T15:24:55.117Z,16.07
2022-10-02T15:26:34.246Z,16.28
2022-10-02T15:28:08.047Z,17.17
2022-10-02T15:29:46.281Z,18.10
2022-10-02T15:31:12.215Z,18.74
2022-10-02T15:32:51.589Z,18.71
2022-10-02T15:34:33.494Z,18.13
2022-10-02T15:35:54.579Z,17.54
2022-10-02T15:37:10.570Z,17.15
2022-10-02T15:38:27.200Z,16.85
2022-10-02T15:39:52.272Z,16.60
2022-10-02T15:41:16.707Z,16.35
2022-10-02T15:42:42.250Z,16.13
2022-10-02T15:44:09.967Z,15.93
2022-10-02T15:45:24.046Z,15.73
2022-10-02T15:46:54.498Z,15.58
2022-10-02T15:48:19.837Z,15.41
2022-10-02T15:50:14.065Z,15.26
2022-10-02T15:51:32.446Z,15.69
2022-10-02T15:52:49.535Z,16.43
2022-10-02T15:54:07.699Z,17.14
2022-10-02T15:55:43.171Z,17.71
2022-10-02T15:57:04.587Z,18.14
2022-10-02T15:58:31.631Z,17.92
2022-10-02T15:59:51.718Z,17.41
2022-10-02T16:01:18.601Z,16.94
2022-10-02T16:02:37.370Z,16.50
2022-10-02T16:03:50.709Z,16.17
2022-10-02T16:05:34.898Z,15.90
2022-10-02T16:07:02.311Z,15.59
2022-10-02T16:08:49.892Z,15.37
2022-10-02T16:10:35.162Z,15.32
2022-10-02T16:11:57.648Z,16.14
2022-10-02T16:13:33.186Z,16.88
2022-10-02T16:14:56.448Z,17.59
2022-10-02T16:15:58.001Z,18.05
2022-10-02T16:17:38.447Z,18.05
2022-10-02T16:19:04.847Z,17.53
2022-10-02T16:20:37.542Z,16.97
2022-10-02T16:22:04.883Z,16.43
2022-10-02T16:23:32.528Z,16.01
2022-10-02T16:24:46.384Z,15.67
2022-10-02T16:26:16.729Z,15.42
2022-10-02T16:27:51.334Z,15.32
2022-10-02T16:29:01.960Z,15.95
2022-10-02T16:30:15.271Z,16.56
2022-10-02T16:31:43.704Z,17.13
2022-10-02T16:33:20.776Z,17.65
2022-10-02T16:34:46.221Z,18.02
2022-10-02T16:36:02.517Z,17.76
2022-10-02T16:37:23.148Z,17.26
2022-10-02T16:38:50.461Z,16.72
2022-10-02T16:40:01.446Z,16.22
2022-10-02T16:41:42.736Z,15.89
2022-10-02T16:43:22.649Z,15.49
2022-10-02T16:44:49.268Z,15.17
2022-10-02T16:46:14.323Z,15.32
2022-10-02T16:47:48.058Z,15.98
2022-10-02T16:48:54.090Z,16.77
2022-10-02T16:50:14.868Z,17.21
2022-10-02T16:51:53.150Z,17.65
2022-10-02T16:53:05.495Z,17.88
2022-10-02T16:54:25.126Z,17.56
2022-10-02T16:55:38.919Z,16.99
2022-10-02T16:56:46.047Z,16.51
2022-10-02T16:58:00.151Z,16.11
2022-10-02T16:59:14.380Z,15.75
2022-10-02T17:00:22.645Z,15.44
2022-10-02T17:01:33.665Z,15.18
2022-10-02T17:02:43.619Z,14.95
2022-10-02T17:03:54.526Z,15.03
2022-10-02T17:05:14.356Z,15.54
2022-10-02T17:06:27.126Z,16.24
2022-10-02T17:07:55.100Z,16.80
2022-10-02T17:09:32.298Z,17.33
2022-10-02T17:10:51.074Z,17.66
2022-10-02T17:12:11.099Z,17.39
2022-10-02T17:13:26.226Z,16.89
2022-10-02T17:14:54.945Z,16.40
2022-10-02T17:16:06.287Z,15.91
2022-10-02T17:17:15.420Z,15.57
2022-10-02T17:18:39.650Z,15.30
2022-10-02T17:20:03.774Z,15.02
2022-10-02T17:21:16.981Z,14.92